sensor_id;sensor_type;location;lat;lon;timestamp;P1;durP1;ratioP1;P2;durP2;ratioP2
41253;SDS011;26987;59.928;30.306;2024-01-10T00:02:02;2.92;;;1.60;;
41253;SDS011;26987;59.928;30.306;2024-01-10T00:04:30;3.75;;;1.70;;
41253;SDS011;26987;59.928;30.306;2024-01-10T00:06:58;3.50;;;1.38;;
41253;SDS011;26987;59.928;30.306;2024-01-10T00:09:26;3.05;;;1.63;;
41253;SDS011;26987;59.928;30.306;2024-01-10T00:11:55;5.22;;;2.00;;
41253;SDS011;26987;59.928;30.306;2024-01-10T00:14:22;3.15;;;1.70;;
41253;SDS011;26987;59.928;30.306;2024-01-10T00:16:50;4.05;;;1.80;;
41253;SDS011;26987;59.928;30.306;2024-01-10T00:19:20;3.67;;;1.70;;
41253;SDS011;26987;59.928;30.306;2024-01-10T00:21:48;2.95;;;1.98;;
41253;SDS011;26987;59.928;30.306;2024-01-10T00:24:15;3.03;;;2.10;;
41253;SDS011;26987;59.928;30.306;2024-01-10T00:26:43;3.28;;;1.90;;
41253;SDS011;26987;59.928;30.306;2024-01-10T00:29:12;3.63;;;2.13;;
41253;SDS011;26987;59.928;30.306;2024-01-10T00:31:40;4.25;;;1.98;;
41253;SDS011;26987;59.928;30.306;2024-01-10T00:34:08;3.40;;;2.33;;
41253;SDS011;26987;59.928;30.306;2024-01-10T00:36:37;2.50;;;1.88;;
41253;SDS011;26987;59.928;30.306;2024-01-10T00:39:05;2.83;;;1.92;;
41253;SDS011;26987;59.928;30.306;2024-01-10T00:41:33;3.55;;;2.10;;
41253;SDS011;26987;59.928;30.306;2024-01-10T00:44:01;2.33;;;1.90;;
41253;SDS011;26987;59.928;30.306;2024-01-10T00:46:29;3.63;;;2.13;;
41253;SDS011;26987;59.928;30.306;2024-01-10T00:48:57;3.20;;;2.38;;
41253;SDS011;26987;59.928;30.306;2024-01-10T00:51:25;3.67;;;2.25;;
41253;SDS011;26987;59.928;30.306;2024-01-10T00:53:54;3.20;;;2.25;;
41253;SDS011;26987;59.928;30.306;2024-01-10T00:56:22;5.85;;;2.55;;
41253;SDS011;26987;59.928;30.306;2024-01-10T00:58:50;2.60;;;1.55;;
41253;SDS011;26987;59.928;30.306;2024-01-10T01:01:22;3.28;;;2.25;;
41253;SDS011;26987;59.928;30.306;2024-01-10T01:03:49;3.50;;;2.40;;
41253;SDS011;26987;59.928;30.306;2024-01-10T01:06:17;2.67;;;2.20;;
41253;SDS011;26987;59.928;30.306;2024-01-10T01:08:45;4.30;;;2.42;;
41253;SDS011;26987;59.928;30.306;2024-01-10T01:11:14;4.82;;;2.30;;
41253;SDS011;26987;59.928;30.306;2024-01-10T01:13:42;3.65;;;2.28;;
41253;SDS011;26987;59.928;30.306;2024-01-10T01:16:10;2.25;;;1.65;;
41253;SDS011;26987;59.928;30.306;2024-01-10T01:18:38;2.60;;;1.90;;
41253;SDS011;26987;59.928;30.306;2024-01-10T01:21:06;2.40;;;1.65;;
41253;SDS011;26987;59.928;30.306;2024-01-10T01:23:34;3.90;;;2.30;;
41253;SDS011;26987;59.928;30.306;2024-01-10T01:26:02;5.15;;;2.70;;
41253;SDS011;26987;59.928;30.306;2024-01-10T01:28:31;3.45;;;2.40;;
41253;SDS011;26987;59.928;30.306;2024-01-10T01:30:59;3.08;;;2.20;;
41253;SDS011;26987;59.928;30.306;2024-01-10T01:33:27;3.25;;;1.92;;
41253;SDS011;26987;59.928;30.306;2024-01-10T01:35:55;3.65;;;1.88;;
41253;SDS011;26987;59.928;30.306;2024-01-10T01:38:23;3.20;;;2.40;;
41253;SDS011;26987;59.928;30.306;2024-01-10T01:40:51;2.95;;;1.92;;
41253;SDS011;26987;59.928;30.306;2024-01-10T01:43:20;4.00;;;2.45;;
41253;SDS011;26987;59.928;30.306;2024-01-10T01:45:51;4.07;;;2.40;;
41253;SDS011;26987;59.928;30.306;2024-01-10T01:48:20;2.90;;;2.03;;
41253;SDS011;26987;59.928;30.306;2024-01-10T01:50:49;4.72;;;2.15;;
41253;SDS011;26987;59.928;30.306;2024-01-10T01:53:19;3.88;;;2.08;;
41253;SDS011;26987;59.928;30.306;2024-01-10T01:55:48;3.05;;;2.20;;
41253;SDS011;26987;59.928;30.306;2024-01-10T01:58:16;3.95;;;2.13;;
41253;SDS011;26987;59.928;30.306;2024-01-10T02:00:44;3.97;;;2.40;;
41253;SDS011;26987;59.928;30.306;2024-01-10T02:03:13;3.25;;;1.63;;
41253;SDS011;26987;59.928;30.306;2024-01-10T02:05:41;4.80;;;1.80;;
41253;SDS011;26987;59.928;30.306;2024-01-10T02:08:09;2.20;;;1.70;;
41253;SDS011;26987;59.928;30.306;2024-01-10T02:10:37;3.40;;;1.73;;
41253;SDS011;26987;59.928;30.306;2024-01-10T02:13:07;4.28;;;1.52;;
41253;SDS011;26987;59.928;30.306;2024-01-10T02:15:37;2.33;;;1.45;;
41253;SDS011;26987;59.928;30.306;2024-01-10T02:18:07;2.58;;;1.67;;
41253;SDS011;26987;59.928;30.306;2024-01-10T02:20:42;1.70;;;1.15;;
41253;SDS011;26987;59.928;30.306;2024-01-10T02:23:10;3.42;;;1.70;;
41253;SDS011;26987;59.928;30.306;2024-01-10T02:25:40;2.58;;;1.80;;
41253;SDS011;26987;59.928;30.306;2024-01-10T02:28:08;3.58;;;1.65;;
41253;SDS011;26987;59.928;30.306;2024-01-10T02:30:36;3.08;;;1.30;;
41253;SDS011;26987;59.928;30.306;2024-01-10T02:33:04;2.78;;;1.10;;
41253;SDS011;26987;59.928;30.306;2024-01-10T02:35:32;1.95;;;1.30;;
41253;SDS011;26987;59.928;30.306;2024-01-10T02:38:00;3.38;;;1.63;;
41253;SDS011;26987;59.928;30.306;2024-01-10T02:40:28;2.67;;;1.27;;
41253;SDS011;26987;59.928;30.306;2024-01-10T02:42:58;3.17;;;1.42;;
41253;SDS011;26987;59.928;30.306;2024-01-10T02:45:26;1.83;;;1.25;;
41253;SDS011;26987;59.928;30.306;2024-01-10T02:47:54;3.05;;;1.50;;
41253;SDS011;26987;59.928;30.306;2024-01-10T02:50:22;2.42;;;1.20;;
41253;SDS011;26987;59.928;30.306;2024-01-10T02:52:49;2.20;;;1.20;;
41253;SDS011;26987;59.928;30.306;2024-01-10T02:55:17;3.05;;;1.13;;
41253;SDS011;26987;59.928;30.306;2024-01-10T02:57:45;3.35;;;1.10;;
41253;SDS011;26987;59.928;30.306;2024-01-10T03:00:15;2.47;;;1.30;;
41253;SDS011;26987;59.928;30.306;2024-01-10T03:02:43;2.60;;;1.05;;
41253;SDS011;26987;59.928;30.306;2024-01-10T03:05:11;3.17;;;1.02;;
41253;SDS011;26987;59.928;30.306;2024-01-10T03:07:39;2.58;;;1.13;;
41253;SDS011;26987;59.928;30.306;2024-01-10T03:10:07;2.17;;;1.00;;
41253;SDS011;26987;59.928;30.306;2024-01-10T03:12:36;3.72;;;0.90;;
41253;SDS011;26987;59.928;30.306;2024-01-10T03:15:04;2.83;;;0.88;;
41253;SDS011;26987;59.928;30.306;2024-01-10T03:17:34;1.52;;;1.00;;
41253;SDS011;26987;59.928;30.306;2024-01-10T03:20:02;3.17;;;0.70;;
41253;SDS011;26987;59.928;30.306;2024-01-10T03:22:31;4.28;;;0.93;;
41253;SDS011;26987;59.928;30.306;2024-01-10T03:24:59;4.50;;;0.75;;
41253;SDS011;26987;59.928;30.306;2024-01-10T03:27:26;2.83;;;0.90;;
41253;SDS011;26987;59.928;30.306;2024-01-10T03:29:54;3.75;;;0.80;;
41253;SDS011;26987;59.928;30.306;2024-01-10T03:32:22;1.80;;;1.10;;
41253;SDS011;26987;59.928;30.306;2024-01-10T03:34:52;2.40;;;0.80;;
41253;SDS011;26987;59.928;30.306;2024-01-10T03:37:20;5.05;;;1.48;;
41253;SDS011;26987;59.928;30.306;2024-01-10T03:39:48;1.35;;;0.60;;
41253;SDS011;26987;59.928;30.306;2024-01-10T03:42:16;1.63;;;0.77;;
41253;SDS011;26987;59.928;30.306;2024-01-10T03:44:43;1.90;;;0.98;;
41253;SDS011;26987;59.928;30.306;2024-01-10T03:47:11;2.90;;;0.75;;
41253;SDS011;26987;59.928;30.306;2024-01-10T03:49:39;1.70;;;1.00;;
41253;SDS011;26987;59.928;30.306;2024-01-10T03:52:08;1.75;;;1.02;;
41253;SDS011;26987;59.928;30.306;2024-01-10T03:54:36;2.38;;;0.93;;
41253;SDS011;26987;59.928;30.306;2024-01-10T03:57:04;3.28;;;1.20;;
41253;SDS011;26987;59.928;30.306;2024-01-10T03:59:32;4.10;;;0.95;;
41253;SDS011;26987;59.928;30.306;2024-01-10T04:02:00;5.95;;;1.45;;
41253;SDS011;26987;59.928;30.306;2024-01-10T04:04:28;4.60;;;1.63;;
41253;SDS011;26987;59.928;30.306;2024-01-10T04:06:56;4.15;;;1.30;;
41253;SDS011;26987;59.928;30.306;2024-01-10T04:09:25;1.92;;;1.20;;
41253;SDS011;26987;59.928;30.306;2024-01-10T04:11:53;1.83;;;1.30;;
41253;SDS011;26987;59.928;30.306;2024-01-10T04:14:21;5.20;;;1.85;;
41253;SDS011;26987;59.928;30.306;2024-01-10T04:16:49;5.75;;;1.45;;
41253;SDS011;26987;59.928;30.306;2024-01-10T04:19:18;3.45;;;2.15;;
41253;SDS011;26987;59.928;30.306;2024-01-10T04:21:46;6.28;;;2.47;;
41253;SDS011;26987;59.928;30.306;2024-01-10T04:24:14;6.00;;;2.00;;
41253;SDS011;26987;59.928;30.306;2024-01-10T04:26:44;8.27;;;2.38;;
41253;SDS011;26987;59.928;30.306;2024-01-10T04:29:12;5.47;;;1.70;;
41253;SDS011;26987;59.928;30.306;2024-01-10T04:31:39;8.38;;;2.10;;
41253;SDS011;26987;59.928;30.306;2024-01-10T04:34:07;4.85;;;2.15;;
41253;SDS011;26987;59.928;30.306;2024-01-10T04:36:35;4.40;;;2.25;;
41253;SDS011;26987;59.928;30.306;2024-01-10T04:39:03;3.85;;;1.95;;
41253;SDS011;26987;59.928;30.306;2024-01-10T04:41:31;6.38;;;2.28;;
41253;SDS011;26987;59.928;30.306;2024-01-10T04:44:00;4.75;;;2.38;;
41253;SDS011;26987;59.928;30.306;2024-01-10T04:46:28;4.68;;;2.30;;
41253;SDS011;26987;59.928;30.306;2024-01-10T04:48:56;7.53;;;2.53;;
41253;SDS011;26987;59.928;30.306;2024-01-10T04:51:24;6.72;;;3.33;;
41253;SDS011;26987;59.928;30.306;2024-01-10T04:53:52;10.60;;;5.85;;
41253;SDS011;26987;59.928;30.306;2024-01-10T04:56:21;14.88;;;5.22;;
41253;SDS011;26987;59.928;30.306;2024-01-10T04:58:49;17.48;;;6.38;;
41253;SDS011;26987;59.928;30.306;2024-01-10T05:01:18;12.55;;;6.07;;
41253;SDS011;26987;59.928;30.306;2024-01-10T05:03:47;12.07;;;5.93;;
41253;SDS011;26987;59.928;30.306;2024-01-10T05:06:15;13.30;;;7.47;;
41253;SDS011;26987;59.928;30.306;2024-01-10T05:08:42;15.15;;;6.35;;
41253;SDS011;26987;59.928;30.306;2024-01-10T05:11:10;11.95;;;5.68;;
41253;SDS011;26987;59.928;30.306;2024-01-10T05:13:39;6.82;;;3.67;;
41253;SDS011;26987;59.928;30.306;2024-01-10T05:16:07;10.45;;;5.25;;
41253;SDS011;26987;59.928;30.306;2024-01-10T05:18:36;10.10;;;3.83;;
41253;SDS011;26987;59.928;30.306;2024-01-10T05:21:04;6.43;;;3.00;;
41253;SDS011;26987;59.928;30.306;2024-01-10T05:23:32;6.50;;;2.35;;
41253;SDS011;26987;59.928;30.306;2024-01-10T05:26:00;8.82;;;3.33;;
41253;SDS011;26987;59.928;30.306;2024-01-10T05:28:28;7.55;;;2.80;;
41253;SDS011;26987;59.928;30.306;2024-01-10T05:30:56;13.93;;;2.72;;
41253;SDS011;26987;59.928;30.306;2024-01-10T05:33:24;5.30;;;2.85;;
41253;SDS011;26987;59.928;30.306;2024-01-10T05:35:54;3.90;;;2.10;;
41253;SDS011;26987;59.928;30.306;2024-01-10T05:38:22;4.55;;;2.60;;
41253;SDS011;26987;59.928;30.306;2024-01-10T05:40:50;11.05;;;3.70;;
41253;SDS011;26987;59.928;30.306;2024-01-10T05:43:18;4.75;;;2.78;;
41253;SDS011;26987;59.928;30.306;2024-01-10T05:45:46;7.55;;;2.28;;
41253;SDS011;26987;59.928;30.306;2024-01-10T05:48:14;4.32;;;2.33;;
41253;SDS011;26987;59.928;30.306;2024-01-10T05:50:43;4.18;;;2.55;;
41253;SDS011;26987;59.928;30.306;2024-01-10T05:53:12;5.20;;;2.95;;
41253;SDS011;26987;59.928;30.306;2024-01-10T05:55:43;6.43;;;2.53;;
41253;SDS011;26987;59.928;30.306;2024-01-10T05:58:11;15.55;;;3.70;;
41253;SDS011;26987;59.928;30.306;2024-01-10T06:00:39;6.43;;;3.05;;
41253;SDS011;26987;59.928;30.306;2024-01-10T06:03:06;7.93;;;4.07;;
41253;SDS011;26987;59.928;30.306;2024-01-10T06:05:35;8.50;;;4.00;;
41253;SDS011;26987;59.928;30.306;2024-01-10T06:08:03;12.27;;;4.22;;
41253;SDS011;26987;59.928;30.306;2024-01-10T06:10:33;9.70;;;3.88;;
41253;SDS011;26987;59.928;30.306;2024-01-10T06:13:01;10.43;;;3.83;;
41253;SDS011;26987;59.928;30.306;2024-01-10T06:15:29;8.57;;;3.78;;
41253;SDS011;26987;59.928;30.306;2024-01-10T06:17:57;9.00;;;4.03;;
41253;SDS011;26987;59.928;30.306;2024-01-10T06:20:25;8.65;;;4.50;;
41253;SDS011;26987;59.928;30.306;2024-01-10T06:22:53;9.23;;;5.20;;
41253;SDS011;26987;59.928;30.306;2024-01-10T06:25:21;10.73;;;4.45;;
41253;SDS011;26987;59.928;30.306;2024-01-10T06:27:51;9.27;;;4.32;;
41253;SDS011;26987;59.928;30.306;2024-01-10T06:30:18;10.60;;;5.05;;
41253;SDS011;26987;59.928;30.306;2024-01-10T06:32:50;11.43;;;4.78;;
41253;SDS011;26987;59.928;30.306;2024-01-10T06:35:20;8.68;;;4.38;;
41253;SDS011;26987;59.928;30.306;2024-01-10T06:37:51;11.90;;;4.65;;
41253;SDS011;26987;59.928;30.306;2024-01-10T06:40:19;12.15;;;5.80;;
41253;SDS011;26987;59.928;30.306;2024-01-10T06:42:48;12.65;;;5.18;;
41253;SDS011;26987;59.928;30.306;2024-01-10T06:45:17;11.38;;;4.50;;
41253;SDS011;26987;59.928;30.306;2024-01-10T06:47:46;11.30;;;4.85;;
41253;SDS011;26987;59.928;30.306;2024-01-10T06:50:15;12.25;;;4.82;;
41253;SDS011;26987;59.928;30.306;2024-01-10T06:52:45;12.15;;;4.65;;
41253;SDS011;26987;59.928;30.306;2024-01-10T06:55:13;7.72;;;4.55;;
41253;SDS011;26987;59.928;30.306;2024-01-10T06:57:41;15.52;;;5.63;;
41253;SDS011;26987;59.928;30.306;2024-01-10T07:00:09;15.63;;;5.65;;
41253;SDS011;26987;59.928;30.306;2024-01-10T07:02:39;6.82;;;4.25;;
41253;SDS011;26987;59.928;30.306;2024-01-10T07:05:10;12.02;;;5.03;;
41253;SDS011;26987;59.928;30.306;2024-01-10T07:07:38;13.73;;;5.45;;
41253;SDS011;26987;59.928;30.306;2024-01-10T07:10:09;12.57;;;6.03;;
41253;SDS011;26987;59.928;30.306;2024-01-10T07:12:37;14.02;;;6.40;;
41253;SDS011;26987;59.928;30.306;2024-01-10T07:15:06;15.60;;;7.20;;
41253;SDS011;26987;59.928;30.306;2024-01-10T07:17:34;14.07;;;7.30;;
41253;SDS011;26987;59.928;30.306;2024-01-10T07:20:04;12.82;;;6.70;;
41253;SDS011;26987;59.928;30.306;2024-01-10T07:22:33;14.60;;;6.80;;
41253;SDS011;26987;59.928;30.306;2024-01-10T07:25:01;15.02;;;6.57;;
41253;SDS011;26987;59.928;30.306;2024-01-10T07:27:29;14.07;;;6.43;;
41253;SDS011;26987;59.928;30.306;2024-01-10T07:29:57;13.35;;;5.60;;
41253;SDS011;26987;59.928;30.306;2024-01-10T07:32:25;12.23;;;6.45;;
41253;SDS011;26987;59.928;30.306;2024-01-10T07:34:53;17.70;;;5.93;;
41253;SDS011;26987;59.928;30.306;2024-01-10T07:37:22;13.98;;;5.90;;
41253;SDS011;26987;59.928;30.306;2024-01-10T07:39:50;11.60;;;5.65;;
41253;SDS011;26987;59.928;30.306;2024-01-10T07:42:20;15.23;;;4.90;;
41253;SDS011;26987;59.928;30.306;2024-01-10T07:44:48;9.80;;;5.20;;
41253;SDS011;26987;59.928;30.306;2024-01-10T07:47:16;18.23;;;6.93;;
41253;SDS011;26987;59.928;30.306;2024-01-10T07:49:44;16.15;;;6.40;;
41253;SDS011;26987;59.928;30.306;2024-01-10T07:52:12;17.88;;;7.25;;
41253;SDS011;26987;59.928;30.306;2024-01-10T07:54:43;11.70;;;6.65;;
41253;SDS011;26987;59.928;30.306;2024-01-10T07:57:11;12.95;;;6.80;;
41253;SDS011;26987;59.928;30.306;2024-01-10T07:59:39;18.20;;;8.32;;
41253;SDS011;26987;59.928;30.306;2024-01-10T08:02:07;18.92;;;7.93;;
41253;SDS011;26987;59.928;30.306;2024-01-10T08:04:36;19.55;;;9.32;;
41253;SDS011;26987;59.928;30.306;2024-01-10T08:07:07;17.23;;;8.77;;
41253;SDS011;26987;59.928;30.306;2024-01-10T08:09:52;18.92;;;9.38;;
41253;SDS011;26987;59.928;30.306;2024-01-10T08:12:23;26.08;;;10.10;;
41253;SDS011;26987;59.928;30.306;2024-01-10T08:14:54;16.27;;;7.60;;
41253;SDS011;26987;59.928;30.306;2024-01-10T08:17:22;24.38;;;9.70;;
41253;SDS011;26987;59.928;30.306;2024-01-10T08:19:50;21.98;;;11.30;;
41253;SDS011;26987;59.928;30.306;2024-01-10T08:22:19;22.65;;;10.73;;
41253;SDS011;26987;59.928;30.306;2024-01-10T08:24:50;30.45;;;11.07;;
41253;SDS011;26987;59.928;30.306;2024-01-10T08:27:18;30.98;;;11.05;;
41253;SDS011;26987;59.928;30.306;2024-01-10T08:29:46;20.17;;;10.23;;
41253;SDS011;26987;59.928;30.306;2024-01-10T08:32:14;22.58;;;10.85;;
41253;SDS011;26987;59.928;30.306;2024-01-10T08:34:43;18.48;;;10.52;;
41253;SDS011;26987;59.928;30.306;2024-01-10T08:37:11;19.52;;;10.55;;
41253;SDS011;26987;59.928;30.306;2024-01-10T08:39:39;18.55;;;9.75;;
41253;SDS011;26987;59.928;30.306;2024-01-10T08:42:10;19.00;;;10.13;;
41253;SDS011;26987;59.928;30.306;2024-01-10T08:44:38;21.02;;;9.65;;
41253;SDS011;26987;59.928;30.306;2024-01-10T08:47:06;20.27;;;10.00;;
41253;SDS011;26987;59.928;30.306;2024-01-10T08:49:34;21.75;;;10.25;;
41253;SDS011;26987;59.928;30.306;2024-01-10T08:52:04;19.20;;;9.27;;
41253;SDS011;26987;59.928;30.306;2024-01-10T08:54:32;14.70;;;9.07;;
41253;SDS011;26987;59.928;30.306;2024-01-10T08:57:00;18.65;;;9.90;;
41253;SDS011;26987;59.928;30.306;2024-01-10T08:59:30;18.48;;;10.80;;
41253;SDS011;26987;59.928;30.306;2024-01-10T09:01:58;20.88;;;9.35;;
41253;SDS011;26987;59.928;30.306;2024-01-10T09:04:26;14.32;;;8.52;;
41253;SDS011;26987;59.928;30.306;2024-01-10T09:06:54;14.25;;;6.90;;
41253;SDS011;26987;59.928;30.306;2024-01-10T09:09:22;17.45;;;6.70;;
41253;SDS011;26987;59.928;30.306;2024-01-10T09:11:49;13.35;;;7.63;;
41253;SDS011;26987;59.928;30.306;2024-01-10T09:14:17;14.40;;;6.93;;
41253;SDS011;26987;59.928;30.306;2024-01-10T09:16:47;13.40;;;5.95;;
41253;SDS011;26987;59.928;30.306;2024-01-10T09:19:15;11.05;;;5.72;;
41253;SDS011;26987;59.928;30.306;2024-01-10T09:21:43;10.93;;;5.95;;
41253;SDS011;26987;59.928;30.306;2024-01-10T09:24:11;15.13;;;6.22;;
41253;SDS011;26987;59.928;30.306;2024-01-10T09:26:40;14.85;;;5.95;;
41253;SDS011;26987;59.928;30.306;2024-01-10T09:29:08;15.10;;;5.60;;
41253;SDS011;26987;59.928;30.306;2024-01-10T09:31:36;13.23;;;5.90;;
41253;SDS011;26987;59.928;30.306;2024-01-10T09:34:06;9.80;;;4.97;;
41253;SDS011;26987;59.928;30.306;2024-01-10T09:36:34;13.57;;;5.13;;
41253;SDS011;26987;59.928;30.306;2024-01-10T09:39:02;9.98;;;4.43;;
41253;SDS011;26987;59.928;30.306;2024-01-10T09:41:32;9.20;;;4.45;;
41253;SDS011;26987;59.928;30.306;2024-01-10T09:44:08;10.90;;;4.72;;
41253;SDS011;26987;59.928;30.306;2024-01-10T09:46:36;9.18;;;4.20;;
41253;SDS011;26987;59.928;30.306;2024-01-10T09:49:08;8.55;;;4.13;;
41253;SDS011;26987;59.928;30.306;2024-01-10T09:51:36;9.63;;;4.75;;
41253;SDS011;26987;59.928;30.306;2024-01-10T09:54:04;13.95;;;5.20;;
41253;SDS011;26987;59.928;30.306;2024-01-10T09:56:32;12.00;;;5.45;;
41253;SDS011;26987;59.928;30.306;2024-01-10T09:59:00;11.68;;;4.70;;
41253;SDS011;26987;59.928;30.306;2024-01-10T10:01:30;11.40;;;5.75;;
41253;SDS011;26987;59.928;30.306;2024-01-10T10:03:59;13.07;;;5.07;;
41253;SDS011;26987;59.928;30.306;2024-01-10T10:06:30;13.57;;;5.80;;
41253;SDS011;26987;59.928;30.306;2024-01-10T10:08:58;13.30;;;6.28;;
41253;SDS011;26987;59.928;30.306;2024-01-10T10:11:26;21.35;;;8.15;;
41253;SDS011;26987;59.928;30.306;2024-01-10T10:13:54;10.45;;;6.15;;
41253;SDS011;26987;59.928;30.306;2024-01-10T10:16:23;18.85;;;7.10;;
41253;SDS011;26987;59.928;30.306;2024-01-10T10:18:52;18.35;;;7.13;;
41253;SDS011;26987;59.928;30.306;2024-01-10T10:21:24;16.65;;;6.72;;
41253;SDS011;26987;59.928;30.306;2024-01-10T10:23:59;15.85;;;7.78;;
41253;SDS011;26987;59.928;30.306;2024-01-10T10:26:31;13.30;;;7.10;;
41253;SDS011;26987;59.928;30.306;2024-01-10T10:29:00;14.07;;;6.97;;
41253;SDS011;26987;59.928;30.306;2024-01-10T10:31:28;18.25;;;8.20;;
41253;SDS011;26987;59.928;30.306;2024-01-10T10:33:57;13.10;;;7.60;;
41253;SDS011;26987;59.928;30.306;2024-01-10T10:36:29;19.05;;;8.50;;
41253;SDS011;26987;59.928;30.306;2024-01-10T10:39:00;16.52;;;7.65;;
41253;SDS011;26987;59.928;30.306;2024-01-10T10:41:30;32.03;;;8.70;;
41253;SDS011;26987;59.928;30.306;2024-01-10T10:44:00;24.08;;;9.13;;
41253;SDS011;26987;59.928;30.306;2024-01-10T10:46:30;19.27;;;8.98;;
41253;SDS011;26987;59.928;30.306;2024-01-10T10:49:00;18.80;;;8.25;;
41253;SDS011;26987;59.928;30.306;2024-01-10T10:51:37;15.40;;;7.78;;
41253;SDS011;26987;59.928;30.306;2024-01-10T10:54:07;17.38;;;9.10;;
41253;SDS011;26987;59.928;30.306;2024-01-10T10:56:36;25.30;;;9.00;;
41253;SDS011;26987;59.928;30.306;2024-01-10T10:59:05;21.73;;;9.25;;
41253;SDS011;26987;59.928;30.306;2024-01-10T11:01:35;17.75;;;8.63;;
41253;SDS011;26987;59.928;30.306;2024-01-10T11:04:03;23.40;;;10.10;;
41253;SDS011;26987;59.928;30.306;2024-01-10T11:06:32;23.98;;;9.77;;
41253;SDS011;26987;59.928;30.306;2024-01-10T11:09:03;20.40;;;10.38;;
41253;SDS011;26987;59.928;30.306;2024-01-10T11:11:37;25.42;;;10.23;;
41253;SDS011;26987;59.928;30.306;2024-01-10T11:14:20;27.23;;;10.90;;
41253;SDS011;26987;59.928;30.306;2024-01-10T11:17:02;22.65;;;10.43;;
41253;SDS011;26987;59.928;30.306;2024-01-10T11:23:04;24.42;;;9.95;;
41253;SDS011;26987;59.928;30.306;2024-01-10T11:25:48;21.77;;;10.30;;
41253;SDS011;26987;59.928;30.306;2024-01-10T11:28:18;27.52;;;10.52;;
41253;SDS011;26987;59.928;30.306;2024-01-10T11:30:49;25.77;;;11.10;;
41253;SDS011;26987;59.928;30.306;2024-01-10T11:33:19;33.83;;;11.73;;
41253;SDS011;26987;59.928;30.306;2024-01-10T11:38:48;27.48;;;10.88;;
41253;SDS011;26987;59.928;30.306;2024-01-10T11:41:21;23.02;;;11.00;;
41253;SDS011;26987;59.928;30.306;2024-01-10T11:46:57;25.55;;;11.18;;
41253;SDS011;26987;59.928;30.306;2024-01-10T11:49:27;24.17;;;10.48;;
41253;SDS011;26987;59.928;30.306;2024-01-10T11:51:55;17.98;;;9.57;;
41253;SDS011;26987;59.928;30.306;2024-01-10T11:54:40;26.25;;;11.00;;
41253;SDS011;26987;59.928;30.306;2024-01-10T11:57:13;26.98;;;9.93;;
41253;SDS011;26987;59.928;30.306;2024-01-10T11:59:49;21.25;;;9.73;;
41253;SDS011;26987;59.928;30.306;2024-01-10T12:02:18;18.55;;;9.80;;
41253;SDS011;26987;59.928;30.306;2024-01-10T12:04:47;20.25;;;9.75;;
41253;SDS011;26987;59.928;30.306;2024-01-10T12:07:15;15.27;;;8.50;;
41253;SDS011;26987;59.928;30.306;2024-01-10T12:09:44;16.42;;;8.30;;
41253;SDS011;26987;59.928;30.306;2024-01-10T12:12:12;16.63;;;7.85;;
41253;SDS011;26987;59.928;30.306;2024-01-10T12:14:40;15.15;;;8.23;;
41253;SDS011;26987;59.928;30.306;2024-01-10T12:17:10;19.08;;;7.43;;
41253;SDS011;26987;59.928;30.306;2024-01-10T12:19:39;17.75;;;8.32;;
41253;SDS011;26987;59.928;30.306;2024-01-10T12:22:10;17.67;;;8.43;;
41253;SDS011;26987;59.928;30.306;2024-01-10T12:24:42;22.55;;;8.88;;
41253;SDS011;26987;59.928;30.306;2024-01-10T12:27:12;17.90;;;9.00;;
41253;SDS011;26987;59.928;30.306;2024-01-10T12:29:40;19.73;;;8.75;;
41253;SDS011;26987;59.928;30.306;2024-01-10T12:32:08;19.20;;;9.77;;
41253;SDS011;26987;59.928;30.306;2024-01-10T12:34:39;23.20;;;9.73;;
41253;SDS011;26987;59.928;30.306;2024-01-10T12:37:07;21.92;;;10.68;;
41253;SDS011;26987;59.928;30.306;2024-01-10T12:39:38;27.23;;;9.98;;
41253;SDS011;26987;59.928;30.306;2024-01-10T12:42:06;21.33;;;9.60;;
41253;SDS011;26987;59.928;30.306;2024-01-10T12:44:35;23.20;;;9.73;;
41253;SDS011;26987;59.928;30.306;2024-01-10T12:47:06;23.70;;;9.48;;
41253;SDS011;26987;59.928;30.306;2024-01-10T12:49:34;20.60;;;9.07;;
41253;SDS011;26987;59.928;30.306;2024-01-10T12:52:05;16.60;;;8.38;;
41253;SDS011;26987;59.928;30.306;2024-01-10T12:54:33;20.92;;;9.00;;
41253;SDS011;26987;59.928;30.306;2024-01-10T12:57:01;17.40;;;9.57;;
41253;SDS011;26987;59.928;30.306;2024-01-10T12:59:30;20.05;;;8.18;;
41253;SDS011;26987;59.928;30.306;2024-01-10T13:01:57;22.25;;;10.15;;
41253;SDS011;26987;59.928;30.306;2024-01-10T13:04:25;20.88;;;9.23;;
41253;SDS011;26987;59.928;30.306;2024-01-10T13:06:54;16.77;;;8.07;;
41253;SDS011;26987;59.928;30.306;2024-01-10T13:09:25;16.92;;;7.85;;
41253;SDS011;26987;59.928;30.306;2024-01-10T13:11:54;15.27;;;7.43;;
41253;SDS011;26987;59.928;30.306;2024-01-10T13:14:22;14.35;;;6.03;;
41253;SDS011;26987;59.928;30.306;2024-01-10T13:16:50;13.85;;;6.18;;
41253;SDS011;26987;59.928;30.306;2024-01-10T13:19:18;11.95;;;6.03;;
41253;SDS011;26987;59.928;30.306;2024-01-10T13:21:46;12.98;;;5.28;;
41253;SDS011;26987;59.928;30.306;2024-01-10T13:24:14;9.23;;;4.72;;
41253;SDS011;26987;59.928;30.306;2024-01-10T13:26:43;9.20;;;4.18;;
41253;SDS011;26987;59.928;30.306;2024-01-10T13:29:11;7.53;;;3.72;;
41253;SDS011;26987;59.928;30.306;2024-01-10T13:31:40;6.60;;;3.50;;
41253;SDS011;26987;59.928;30.306;2024-01-10T13:34:08;5.13;;;3.40;;
41253;SDS011;26987;59.928;30.306;2024-01-10T13:36:37;7.10;;;4.18;;
41253;SDS011;26987;59.928;30.306;2024-01-10T13:39:05;8.25;;;3.72;;
41253;SDS011;26987;59.928;30.306;2024-01-10T13:41:33;11.00;;;4.10;;
41253;SDS011;26987;59.928;30.306;2024-01-10T13:44:02;8.48;;;4.05;;
41253;SDS011;26987;59.928;30.306;2024-01-10T13:46:31;6.40;;;4.00;;
41253;SDS011;26987;59.928;30.306;2024-01-10T13:49:00;16.33;;;5.78;;
41253;SDS011;26987;59.928;30.306;2024-01-10T13:51:28;8.85;;;4.75;;
41253;SDS011;26987;59.928;30.306;2024-01-10T13:53:56;8.93;;;4.30;;
41253;SDS011;26987;59.928;30.306;2024-01-10T13:56:24;10.63;;;4.38;;
41253;SDS011;26987;59.928;30.306;2024-01-10T13:58:54;8.85;;;3.92;;
41253;SDS011;26987;59.928;30.306;2024-01-10T14:01:25;11.43;;;5.30;;
41253;SDS011;26987;59.928;30.306;2024-01-10T14:03:54;8.10;;;4.78;;
41253;SDS011;26987;59.928;30.306;2024-01-10T14:06:22;7.57;;;4.72;;
41253;SDS011;26987;59.928;30.306;2024-01-10T14:08:50;9.75;;;5.00;;
41253;SDS011;26987;59.928;30.306;2024-01-10T14:11:19;10.73;;;4.05;;
41253;SDS011;26987;59.928;30.306;2024-01-10T14:13:47;6.07;;;3.40;;
41253;SDS011;26987;59.928;30.306;2024-01-10T14:16:15;7.15;;;3.17;;
41253;SDS011;26987;59.928;30.306;2024-01-10T14:18:44;6.57;;;2.38;;
41253;SDS011;26987;59.928;30.306;2024-01-10T14:21:13;5.43;;;2.00;;
41253;SDS011;26987;59.928;30.306;2024-01-10T14:23:41;3.35;;;1.40;;
41253;SDS011;26987;59.928;30.306;2024-01-10T14:26:10;2.28;;;1.10;;
41253;SDS011;26987;59.928;30.306;2024-01-10T14:28:37;4.07;;;1.13;;
41253;SDS011;26987;59.928;30.306;2024-01-10T14:31:05;3.88;;;1.10;;
41253;SDS011;26987;59.928;30.306;2024-01-10T14:33:36;2.47;;;0.93;;
41253;SDS011;26987;59.928;30.306;2024-01-10T14:36:08;2.42;;;0.90;;
41253;SDS011;26987;59.928;30.306;2024-01-10T14:38:37;1.73;;;1.08;;
41253;SDS011;26987;59.928;30.306;2024-01-10T14:41:06;4.93;;;1.38;;
41253;SDS011;26987;59.928;30.306;2024-01-10T14:43:35;1.63;;;0.93;;
41253;SDS011;26987;59.928;30.306;2024-01-10T14:46:04;2.63;;;1.33;;